Istra, Russia
Current Conditions -  °F | °C
As of 6:30 PM on Thursday 23 Oct 2014 (Local Time) from UUEE Reporting Station
Scattered Clouds Scattered Clouds  
Wind Chill:   Ceiling: Unl
Heat Index: 19°   Visibility: 6mi
Dew Point: 12°   Wind: 9mph
Humidity: 74%   Direction: 310°NW
Pressure: 30.36"   Gusts: NA
Location:  55.92°N, 36.86°E
Report Text: UUEE 231530Z 31004MPS 9999 SCT026 M07/M11 Q1028 7541016225410151 NOSIG
Loading
Personal Weather Stations






























Interactive Weather Map
Tropical Storm Tracking
New forecast layout! Learn more

10-Day Weather Forecast

Advertisements
Track Severe Weather on mobile